»·PEaware :: N763BR KSAT-KSAN

N763BR :: KSAT-KSAN

FLIGHT INFORMATION

Flight Status: Arrived
Operator: Privately registered:
United States
More flights under this callsign
Pilot: John H. (610)
Aircraft: BOEING 747-400 (WINGLETS)
(B744)
More flights by this aircraft type
Origin: KSAT San Antonio Intl
United States
Destination: KSAN San Diego Intl-Lindbergh
United States
More flights between these airports :: More routes between these airports
Route: ALISS2 FST J2 ALIBY J50 GBN J18 IPL LYNDI3
File this flight plan on PilotEdge
Remarks:
Altitude:
(Current/Filed)
40,000ft
Speed:
(Current/Filed)
480kts
Departed: 04-Dec-13 05:11 PM
Arrived: 04-Dec-13 07:30 PM
Distance/Time
Traveled:
979nm/2:19
Distance/Time
To Go:
Arrived

Flight Plot

Page will automatically refresh every two minutes.


Map Options




Map Legend


Flown Route
Filed Route
Departure Airport
Arrival Airport
Navaid (VOR, NDB)
Fix

Horizontal Profiles

Position Reports

Time Latitude Longitude Heading Altitude Ground
Speed
04-Dec-13 17:05 29.527294 -98.465649 311 790ft 0kts
04-Dec-13 17:06 29.527294 -98.465649 311 790ft 0kts
04-Dec-13 17:07 29.527294 -98.465649 311 790ft 0kts
04-Dec-13 17:08 29.527294 -98.465649 311 790ft 0kts
04-Dec-13 17:09 29.527393 -98.465776 311 791ft 22kts
04-Dec-13 17:10 29.565863 -98.495202 330 2575ft 245kts
04-Dec-13 17:11 29.626726 -98.539032 327 5417ft 269kts
04-Dec-13 17:12 29.690771 -98.586367 327 8432ft 281kts
04-Dec-13 17:13 29.760341 -98.637873 327 12011ft 335kts
04-Dec-13 17:14 29.825881 -98.715567 308 15744ft 368kts
04-Dec-13 17:15 29.896803 -98.816121 309 19518ft 447kts
04-Dec-13 17:16 29.976782 -98.928985 309 23282ft 490kts
04-Dec-13 17:17 30.061926 -99.049524 309 25969ft 485kts
04-Dec-13 17:18 30.145342 -99.170347 307 28627ft 480kts
04-Dec-13 17:19 30.229293 -99.295419 308 31351ft 498kts
04-Dec-13 17:20 30.288028 -99.424715 268 33798ft 491kts
04-Dec-13 17:21 30.314845 -99.570633 284 36514ft 464kts
04-Dec-13 17:22 30.335941 -99.700441 277 39002ft 417kts
04-Dec-13 17:23 30.360922 -99.825555 280 40068ft 394kts
04-Dec-13 17:24 30.381516 -99.928186 280 40058ft 392kts
04-Dec-13 17:25 30.405914 -100.050390 280 39997ft 390kts
04-Dec-13 17:26 30.430963 -100.176525 280 39408ft 408kts
04-Dec-13 17:27 30.456743 -100.307022 280 39215ft 423kts
04-Dec-13 17:28 30.483361 -100.442535 280 39045ft 443kts
04-Dec-13 17:29 30.510922 -100.583665 280 39124ft 460kts
04-Dec-13 17:30 30.539671 -100.732605 280 39225ft 479kts
04-Dec-13 17:31 30.569362 -100.886599 280 39335ft 501kts
04-Dec-13 17:32 30.600154 -101.047420 280 39430ft 517kts
04-Dec-13 17:33 30.646117 -101.289629 280 39484ft 520kts
04-Dec-13 17:35 30.691905 -101.533554 280 40016ft 521kts
04-Dec-13 17:36 30.722157 -101.696863 280 40023ft 520kts
04-Dec-13 17:37 30.752356 -101.860524 280 40024ft 520kts
04-Dec-13 17:38 30.782419 -102.024544 280 40022ft 521kts
04-Dec-13 17:39 30.812243 -102.188411 279 40033ft 513kts
04-Dec-13 17:40 30.841528 -102.350674 278 40032ft 504kts
04-Dec-13 17:41 30.869899 -102.509001 278 40031ft 500kts
04-Dec-13 17:42 30.897409 -102.664460 278 40033ft 497kts
04-Dec-13 17:43 30.925127 -102.821440 278 40033ft 495kts
04-Dec-13 17:44 30.952619 -102.978037 279 40030ft 495kts
04-Dec-13 17:45 30.995013 -103.130348 284 40035ft 497kts
04-Dec-13 17:46 31.036924 -103.283573 284 40032ft 497kts
04-Dec-13 17:47 31.078741 -103.436657 284 40031ft 497kts
04-Dec-13 17:48 31.120020 -103.588590 284 40029ft 496kts
04-Dec-13 17:49 31.159279 -103.734368 284 40035ft 496kts
04-Dec-13 17:50 31.197356 -103.875888 284 40034ft 496kts
04-Dec-13 17:51 31.238455 -104.029435 284 40034ft 496kts
04-Dec-13 17:52 31.279430 -104.183334 284 40033ft 496kts
04-Dec-13 17:53 31.320153 -104.337113 284 40033ft 496kts
04-Dec-13 17:54 31.360492 -104.490259 284 40032ft 496kts
04-Dec-13 17:55 31.400238 -104.642696 283 40037ft 496kts
04-Dec-13 17:56 31.440316 -104.796352 283 40036ft 496kts
04-Dec-13 17:57 31.480101 -104.949857 283 40036ft 496kts
04-Dec-13 17:58 31.519698 -105.103479 283 40035ft 495kts
04-Dec-13 17:59 31.559239 -105.257729 283 40035ft 495kts
04-Dec-13 18:00 31.598489 -105.411703 283 40034ft 495kts
04-Dec-13 18:01 31.637458 -105.565453 283 40034ft 495kts
04-Dec-13 18:02 31.675172 -105.715747 283 40032ft 495kts
04-Dec-13 18:03 31.713798 -105.869814 283 40031ft 495kts
04-Dec-13 18:04 31.751766 -106.022125 283 40032ft 494kts
04-Dec-13 18:05 31.787694 -106.166836 280 40024ft 461kts
04-Dec-13 18:06 31.818939 -106.306972 266 39991ft 427kts
04-Dec-13 18:07 31.828308 -106.442605 270 40014ft 419kts
04-Dec-13 18:08 31.836627 -106.555003 269 40011ft 412kts
04-Dec-13 18:09 31.847741 -106.707692 269 40029ft 407kts
04-Dec-13 18:10 31.857305 -106.839403 269 40026ft 405kts
04-Dec-13 18:11 31.865122 -106.948477 269 40023ft 404kts
04-Dec-13 18:12 31.874375 -107.079261 269 40067ft 408kts
04-Dec-13 18:13 31.883742 -107.213811 269 40071ft 418kts
04-Dec-13 18:14 31.893015 -107.348989 269 39998ft 425kts
04-Dec-13 18:15 31.901881 -107.480263 269 39990ft 428kts
04-Dec-13 18:16 31.910708 -107.615708 268 40009ft 429kts
04-Dec-13 18:17 31.919727 -107.753244 268 40004ft 430kts
04-Dec-13 18:18 31.948056 -107.890046 280 40009ft 442kts
04-Dec-13 18:19 31.980711 -108.025961 278 39999ft 441kts
04-Dec-13 18:20 32.013308 -108.162604 278 39998ft 441kts
04-Dec-13 18:21 32.045574 -108.298637 278 39996ft 441kts
04-Dec-13 18:22 32.077766 -108.435071 278 39994ft 441kts
04-Dec-13 18:23 32.109964 -108.572255 278 39992ft 441kts
04-Dec-13 18:24 32.141326 -108.707263 278 40007ft 440kts
04-Dec-13 18:25 32.173521 -108.845881 278 40005ft 440kts
04-Dec-13 18:26 32.205396 -108.983874 278 40003ft 440kts
04-Dec-13 18:27 32.237297 -109.122732 278 40001ft 440kts
04-Dec-13 18:28 32.268748 -109.260378 278 39999ft 440kts
04-Dec-13 18:29 32.302100 -109.396760 279 39997ft 441kts
04-Dec-13 18:30 32.335445 -109.533773 279 39995ft 441kts
04-Dec-13 18:31 32.366299 -109.661694 278 40010ft 440kts
04-Dec-13 18:32 32.399241 -109.798421 278 40008ft 440kts
04-Dec-13 18:33 32.432009 -109.935057 279 40006ft 440kts
04-Dec-13 18:34 32.463840 -110.068993 281 39951ft 425kts
04-Dec-13 18:35 32.495237 -110.201080 286 39955ft 421kts
04-Dec-13 18:36 32.526744 -110.334336 288 39951ft 426kts
04-Dec-13 18:37 32.558490 -110.469389 289 39948ft 431kts
04-Dec-13 18:38 32.590017 -110.604919 289 39961ft 434kts
04-Dec-13 18:39 32.621880 -110.742054 290 39957ft 436kts
04-Dec-13 18:40 32.653478 -110.878789 290 39968ft 437kts
04-Dec-13 18:41 32.685185 -111.016724 290 39968ft 437kts
04-Dec-13 18:42 32.716963 -111.155738 290 39966ft 438kts
04-Dec-13 18:43 32.748701 -111.295318 290 39972ft 444kts
04-Dec-13 18:44 32.780978 -111.438132 290 39962ft 450kts
04-Dec-13 18:45 32.812931 -111.580355 289 39960ft 450kts
04-Dec-13 18:46 32.844580 -111.722599 289 39968ft 450kts
04-Dec-13 18:47 32.876552 -111.866435 289 39967ft 450kts
04-Dec-13 18:48 32.896158 -112.013719 281 39967ft 457kts
04-Dec-13 18:49 32.909759 -112.161037 279 40062ft 452kts
04-Dec-13 18:50 32.922559 -112.299674 278 40061ft 458kts
04-Dec-13 18:51 32.936356 -112.450682 277 40060ft 463kts
04-Dec-13 18:52 32.949848 -112.601659 276 40068ft 466kts
04-Dec-13 18:53 32.945146 -112.754292 265 40076ft 469kts
04-Dec-13 18:54 32.924875 -112.907726 262 40065ft 470kts
04-Dec-13 18:55 32.904117 -113.060782 262 40074ft 470kts
04-Dec-13 18:56 32.883093 -113.213875 261 40073ft 471kts
04-Dec-13 18:57 32.861870 -113.366984 261 40072ft 471kts
04-Dec-13 18:58 32.840481 -113.519888 261 40071ft 472kts
04-Dec-13 18:59 32.818986 -113.671182 260 40077ft 472kts
04-Dec-13 19:00 32.800774 -113.798982 260 40076ft 472kts
04-Dec-13 19:01 32.778776 -113.952245 260 40075ft 472kts
04-Dec-13 19:02 32.774609 -114.107049 269 40079ft 473kts
04-Dec-13 19:03 32.772802 -114.261603 269 40007ft 473kts
04-Dec-13 19:04 32.770894 -114.415372 269 40003ft 473kts
04-Dec-13 19:05 32.768779 -114.569838 268 40001ft 473kts
04-Dec-13 19:06 32.765966 -114.723895 268 40006ft 473kts
04-Dec-13 19:07 32.762997 -114.879247 268 39997ft 473kts
04-Dec-13 19:08 32.759848 -115.034066 268 39995ft 473kts
04-Dec-13 19:09 32.756488 -115.189814 268 39994ft 473kts
04-Dec-13 19:10 32.752949 -115.344945 268 39993ft 473kts
04-Dec-13 19:11 32.749233 -115.499504 268 39992ft 473kts
04-Dec-13 19:12 32.752669 -115.653067 271 39761ft 455kts
04-Dec-13 19:13 32.756265 -115.801989 271 35977ft 441kts
04-Dec-13 19:14 32.759664 -115.946400 271 30378ft 437kts
04-Dec-13 19:15 32.762917 -116.092371 271 22633ft 462kts
04-Dec-13 19:16 32.782387 -116.231213 272 16573ft 425kts
04-Dec-13 19:17 32.757813 -116.353617 264 12718ft 344kts
04-Dec-13 19:18 32.742976 -116.452047 260 10634ft 281kts
04-Dec-13 19:19 32.730022 -116.540597 260 8571ft 264kts
04-Dec-13 19:20 32.719462 -116.611526 259 8014ft 254kts
04-Dec-13 19:21 32.711137 -116.706265 267 7428ft 254kts
04-Dec-13 19:22 32.708627 -116.785050 0 6488ft 0kts
04-Dec-13 19:23 32.693877 -116.862012 251 5468ft 252kts
04-Dec-13 19:24 32.671877 -116.936644 267 4745ft 251kts
04-Dec-13 19:25 32.690556 -117.012602 285 3260ft 227kts
04-Dec-13 19:26 32.705453 -117.073586 285 2122ft 177kts
04-Dec-13 19:27 32.718079 -117.125420 285 928ft 184kts
04-Dec-13 19:28 32.732194 -117.184089 286 31ft 138kts
04-Dec-13 19:29 32.734309 -117.194538 253 28ft 0kts
04-Dec-13 19:30 32.732436 -117.194784 140 28ft 4kts
04-Dec-13 19:31 32.732342 -117.194676 136 29ft 0kts
04-Dec-13 19:32 32.732342 -117.194676 136 29ft 0kts
04-Dec-13 19:33 32.732342 -117.194676 136 29ft 0kts
04-Dec-13 19:34 32.732342 -117.194676 136 29ft 0kts
04-Dec-13 19:35 32.732342 -117.194676 136 29ft 0kts
04-Dec-13 19:36 32.732342 -117.194676 136 29ft 0kts
04-Dec-13 19:37 32.732342 -117.194676 136 29ft 0kts
04-Dec-13 19:38 32.732342 -117.194676 136 29ft 0kts
04-Dec-13 19:39 32.732342 -117.194676 136 29ft 0kts
04-Dec-13 19:40 32.732342 -117.194676 136 29ft 0kts
04-Dec-13 19:41 32.732342 -117.194676 136 29ft 0kts
04-Dec-13 19:42 32.732342 -117.194676 136 29ft 0kts
04-Dec-13 19:43 32.732342 -117.194676 136 29ft 0kts

Navigation Log

Ident Type
1. KSAT Airport
2. FST Navaid
3. FIGMO Fix
4. ELP Navaid
5. ALIBY Fix
6. SSO Navaid
7. ITEMM Fix
8. TOTEC Fix
9. TFD Navaid
10. GBN Navaid
11. JUDTH Fix
12. MOHAK Fix
13. HOGGZ Fix
14. BZA Navaid
15. HEEDS Fix
16. IPL Navaid
17. KUMBA Fix
18. GREED Fix
19. MORAA Fix
20. LUCKI Fix
21. LYNDI Fix
22. KSAN Airport